METAR Data
IDs: Format: Raw Decoded Include TAF

Data at: 2057 UTC 18 Sep 2018

K5T9 182035Z AUTO 11007G13KT 090V150 10SM BKN041 BKN047 31/21 A2992 RMK A01
K5T9 182015Z AUTO 12008KT 10SM FEW040 FEW060 30/21 A2993 RMK A01
K5T9 181955Z AUTO VRB06G11KT 10SM CLR 31/21 A2994 RMK A01
K5T9 181935Z AUTO 12006G14KT 10SM SCT036 SCT043 SCT050 30/21 A2995 RMK A01
K5T9 181915Z AUTO 12007KT 10SM SCT036 SCT044 SCT050 30/21 A2996 RMK A01
K5T9 181855Z AUTO 18007G13KT 150V210 10SM FEW038 FEW047 30/21 A2997 RMK A01
K5T9 181835Z AUTO 13008G14KT 100V160 10SM FEW038 SCT044 30/20 A2998 RMK A01
K5T9 181815Z AUTO 12009G15KT 10SM FEW030 SCT040 SCT050 30/22 A2999 RMK A01
K5T9 181755Z AUTO VRB06G11KT 10SM SCT028 SCT034 BKN040 28/22 A3000 RMK A01
K5T9 181735Z AUTO VRB06KT 10SM FEW027 SCT037 29/22 A3001 RMK A01
K5T9 181715Z AUTO 17008G14KT 10SM FEW031 SCT039 29/21 A3002 RMK A01
K5T9 181655Z AUTO 14008G16KT 110V170 10SM FEW022 SCT030 BKN036 28/21 A3002 RMK A01
K5T9 181635Z AUTO 14007KT 110V170 10SM FEW016 FEW024 BKN034 27/22 A3003 RMK A01
K5T9 181615Z AUTO 14008G13KT 10SM SCT015 OVC032 26/22 A3003 RMK A01
K5T9 181555Z AUTO 8/25000008KT 10SM BKN015 BKN022 OVC034 26/23 A3003 RMK A01
K5T9 181535Z AUTO 13009KT 10SM SCT014 SCT021 OVC032 26/22 A3003 RMK A01
K5T9 181515Z AUTO 12008KT 10SM FEW010 FEW013 OVC029 25/23 A3003 RMK A01
K5T9 181455Z AUTO 11007KT 10SM SCT009 BKN013 OVC026 24/22 A3002 RMK A01
K5T9 181435Z AUTO 11006KT 10SM BKN008 BKN013 OVC025 24/23 A3002 RMK A01
K5T9 181415Z AUTO 11005KT 9SM BKN008 OVC023 24/22 A3002 RMK A01
K5T9 181355Z AUTO 11006KT 9SM SCT008 SCT015 OVC023 24/22 A3002 RMK A01
K5T9 181335Z AUTO 12006KT 8SM FEW007 FEW015 OVC023 24/23 A3001 RMK A01
K5T9 181315Z AUTO 11007KT 7SM SCT008 OVC020 24/23 A3001 RMK A01
K5T9 181255Z AUTO 11006KT 6SM BR SCT007 OVC019 24/23 A3000 RMK A01
K5T9 181235Z AUTO 10006KT 8SM FEW007 SCT011 OVC018 24/22 A3000 RMK A01
K5T9 181215Z AUTO 12005KT 9SM SCT008 OVC016 24/22 A2999 RMK A01
K5T9 181155Z AUTO 12005KT 9SM FEW012 OVC019 24/22 A2999 RMK A01
K5T9 181135Z AUTO 12006KT 10SM FEW010 OVC019 24/22 A2999 RMK A01
K5T9 181115Z AUTO 13005KT 10SM BKN010 OVC017 24/23 A2998 RMK A01
K5T9 181055Z AUTO 12004KT 8SM BKN010 BKN014 OVC022 24/22 A2998 RMK A01
K5T9 181035Z AUTO 11005KT BKN008 OVC013 24/22 A2998 RMK A01
K5T9 181015Z AUTO 12005KT 8SM BKN008 BKN013 OVC022 24/22 A2998 RMK A01
K5T9 180955Z AUTO 12005KT 8SM SCT009 OVC013 24/22 A2997 RMK A01
K5T9 180935Z AUTO 11004KT 7SM OVC013 24/22 A2997 RMK A01
K5T9 180915Z AUTO 11005KT 6SM BR SCT005 OVC014 24/22 A2997 RMK A01
K5T9 180855Z AUTO 13004KT 8SM BKN006 OVC013 24/22 A2997 RMK A01
K5T9 180835Z AUTO 13005KT 9SM BKN007 BKN011 OVC016 24/22 A2998 RMK A01
K5T9 180815Z AUTO 12006KT 10SM BKN007 OVC016 24/22 A2998 RMK A01
K5T9 180755Z AUTO 11007KT 10SM OVC007 24/22 A2998 RMK A01
K5T9 180735Z AUTO 11006KT 10SM BKN008 BKN013 OVC041 24/22 A2998 RMK A01
K5T9 180715Z AUTO 10007KT 10SM FEW011 SCT020 BKN041 24/22 A2998 RMK A01
K5T9 180655Z AUTO 11008KT 10SM FEW008 FEW023 FEW031 24/22 A2997 RMK A01
K5T9 180635Z AUTO 11009KT 10SM FEW110 24/22 A2997 RMK A01
K5T9 180615Z AUTO 10007KT 10SM BKN095 24/22 A2997 RMK A01
K5T9 180555Z AUTO 11007KT 10SM BKN090 24/22 A2998 RMK A01
K5T9 180535Z AUTO 11007KT 10SM OVC080 24/22 A2998 RMK A01
K5T9 180515Z AUTO 12007KT 10SM FEW040 SCT060 OVC075 24/22 A2998 RMK A01
K5T9 180455Z AUTO 11008KT 10SM BKN041 BKN050 OVC060 24/22 A2998 RMK A01
K5T9 180435Z AUTO 10006KT 10SM BKN041 BKN048 OVC065 24/22 A2998 RMK A01
K5T9 180415Z AUTO VRB05KT 10SM SCT042 24/21 A2998 RMK A01
K5T9 180355Z AUTO 07006KT 10SM SCT043 BKN070 24/21 A2997 RMK A01
K5T9 180335Z AUTO 06005KT 10SM BKN065 OVC075 24/21 A2998 RMK A01
K5T9 180315Z AUTO 05004KT 10SM OVC060 24/21 A2997 RMK A01
K5T9 180255Z AUTO 06003KT 10SM OVC060 24/21 A2997 RMK A01
K5T9 180235Z AUTO 08004KT 10SM BKN060 BKN080 24/21 A2997 RMK A01
K5T9 180215Z AUTO 10005KT 10SM FEW065 BKN080 24/21 A2996 RMK A01
K5T9 180155Z AUTO 08008KT 10SM FEW050 SCT065 OVC075 24/22 A2996 RMK A01
K5T9 180135Z AUTO 00000KT 10SM FEW050 SCT055 BKN100 24/22 A2994 RMK A01
K5T9 180115Z AUTO 10SM FEW100 24/22 A2994 RMK A01
K5T9 180055Z AUTO 00000KT 10SM CLR 24/22 A2994 RMK A01
K5T9 180035Z AUTO 00000KT 10SM FEW100 24/22 A2994 RMK A01
K5T9 180015Z AUTO 00000KT 10SM FEW055 BKN095 SCT120 24/22 A2994 RMK A01
K5T9 172355Z AUTO 25005KT 10SM FEW048 BKN055 OVC070 25/23 A2995 RMK A01
K5T9 172335Z AUTO 00000KT 10SM FEW035 BKN048 OVC070 25/23 A2994 RMK A01
K5T9 172315Z AUTO 00000KT 10SM FEW041 BKN047 OVC055 25/23 A2992 RMK A01
K5T9 172255Z AUTO 05004KT 10SM SCT041 SCT046 BKN050 25/23 A2991 RMK A01
K5T9 172235Z AUTO 00000KT 10SM CLR 25/23 A2991 RMK A01
K5T9 172215Z AUTO 07005KT 10SM FEW045 FEW055 SCT065 25/22 A2992 RMK A01
K5T9 172155Z AUTO VRB03G11KT 1SM HZ SCT003 BKN037 BKN045 24/22 A2991 RMK A01
K5T9 172135Z AUTO 10014KT 9SM BKN037 BKN049 BKN065 27/22 A2991 RMK A01
K5T9 172115Z AUTO VRB05KT 10SM SCT038 BKN049 BKN055 30/22 A2990 RMK A01
K5T9 172055Z AUTO 12009KT 10SM FEW035 SCT055 BKN075 30/22 A2991 RMK A01
K5T9 172035Z AUTO 11009KT 10SM SCT036 SCT049 BKN075 30/21 A2992 RMK A01
K5T9 172015Z AUTO 14007G13KT 110V170 10SM SCT033 SCT039 BKN060 30/22 A2993 RMK A01
K5T9 171955Z AUTO 12008KT 10SM SCT032 BKN060 OVC075 29/21 A2994 RMK A01
K5T9 171935Z AUTO 10009G16KT 10SM FEW030 SCT036 BKN060 29/22 A2995 RMK A01
K5T9 171915Z AUTO 12011KT 10SM FEW033 FEW038 OVC060 30/22 A2996 RMK A01
K5T9 171855Z AUTO 14009G17KT 120V180 10SM BKN060 30/21 A2996 RMK A01
K5T9 171835Z AUTO VRB06G16KT 10SM FEW033 30/21 A2997 RMK A01
K5T9 171815Z AUTO VRB05G12KT 10SM SCT026 SCT033 BKN095 29/22 A2998 RMK A01
K5T9 171755Z AUTO VRB06KT 10SM BKN026 OVC032 26/22 A2999 RMK A01
K5T9 171735Z AUTO VRB04G12KT 10SM BKN022 BKN029 OVC036 27/22 A2999 RMK A01
K5T9 171715Z AUTO 15006KT 10SM BKN019 BKN030 OVC036 26/22 A3000 RMK A01
K5T9 171655Z AUTO 12005G10KT 9SM SCT017 BKN022 OVC055 25/22 A3000 RMK A01
K5T9 171635Z AUTO 11011KT 10SM BKN017 BKN022 OVC055 26/22 A3001 RMK A01
K5T9 171615Z AUTO 13008G13KT 10SM SCT015 BKN019 OVC055 26/22 A3001 RMK A01
K5T9 171555Z AUTO 12010KT 10SM BKN015 OVC024 25/22 A3001 RMK A01
K5T9 171535Z AUTO 12006KT 10SM BKN015 BKN021 OVC034 25/22 A3000 RMK A01
K5T9 171515Z AUTO 13008KT 10SM SCT013 BKN019 OVC023 25/22 A3000 RMK A01
K5T9 171455Z AUTO 14007KT 120V180 10SM BKN012 BKN018 OVC026 24/22 A3000 RMK A01
K5T9 171435Z AUTO 11007KT 10SM BKN014 OVC027 24/22 A2999 RMK A01
K5T9 171415Z AUTO 11007KT 10SM FEW008 OVC014 24/22 A2999 RMK A01
K5T9 171355Z AUTO 11007KT 10SM FEW008 BKN014 OVC029 24/22 A2998 RMK A01
K5T9 171335Z AUTO 11007KT 10SM SCT008 BKN014 OVC029 23/22 A2997 RMK A01
K5T9 171315Z AUTO 11006KT 10SM SCT007 SCT017 OVC024 23/22 A2996 RMK A01
K5T9 171255Z AUTO 11007KT 10SM FEW008 FEW012 OVC022 23/22 A2996 RMK A01
K5T9 171235Z AUTO 11008KT 10SM FEW007 SCT011 BKN017 23/22 A2995 RMK A01
K5T9 171215Z AUTO 11008KT 10SM FEW008 BKN014 OVC023 23/22 A2995 RMK A01
K5T9 171155Z AUTO 09009KT 10SM SCT007 OVC013 23/22 A2995 RMK A01
K5T9 171135Z AUTO 09008KT 10SM SCT006 BKN013 OVC025 23/22 A2994 RMK A01
K5T9 171115Z AUTO 10009KT 10SM FEW006 FEW015 OVC025 23/22 A2994 RMK A01
K5T9 171055Z AUTO 10007KT 10SM FEW006 SCT015 BKN024 23/22 A2994 RMK A01
K5T9 171035Z AUTO 11006KT 10SM FEW007 BKN042 23/22 A2993 RMK A01
K5T9 171015Z AUTO 11007KT 10SM SCT007 BKN010 OVC043 23/22 A2993 RMK A01
K5T9 170955Z AUTO 11006KT 10SM BKN009 BKN014 OVC030 23/22 A2994 RMK A01
K5T9 170935Z AUTO 11006KT 10SM FEW009 BKN019 OVC030 23/22 A2994 RMK A01
K5T9 170915Z AUTO 10007KT 10SM BKN007 BKN018 OVC029 23/22 A2993 RMK A01